Time;durP1;ratioP1;P1;durP2;ratioP2;P2;SDS_P1;SDS_P2;PMS_P1;PMS_P2;Temp;Humidity;BMP_temperature;BMP_pressure;BME280_temperature;BME280_humidity;BME280_pressure;Samples;Min_cycle;Max_cycle;Signal;HPM_P1;HPM_P2
2023/05/12 00:00:37;;;;;;;;;1.00;1.00;;;;;;;;4995860;28;45352;-67
2023/05/12 00:03:03;;;;;;;;;2.00;1.00;;;;;;;;4995792;28;45484;-67
2023/05/12 00:05:28;;;;;;;;;1.67;1.67;;;;;;;;4995732;28;45502;-68
2023/05/12 00:07:54;;;;;;;;;2.50;1.00;;;;;;;;4995635;28;45451;-67
2023/05/12 00:10:19;;;;;;;;;2.00;2.00;;;;;;;;4995964;28;45421;-67
2023/05/12 00:12:45;;;;;;;;;3.00;3.00;;;;;;;;4995333;28;45452;-67
2023/05/12 00:15:10;;;;;;;;;2.00;2.00;;;;;;;;4996453;28;45399;-67
2023/05/12 00:17:35;;;;;;;;;2.00;2.00;;;;;;;;4994952;28;45842;-67
2023/05/12 00:20:02;;;;;;;;;3.00;2.00;;;;;;;;4996221;28;45438;-67
2023/05/12 00:22:27;;;;;;;;;2.25;2.00;;;;;;;;4995572;28;45601;-67
2023/05/12 00:24:52;;;;;;;;;1.00;1.00;;;;;;;;4995860;28;45362;-68
2023/05/12 00:27:18;;;;;;;;;2.75;1.50;;;;;;;;4996090;28;45402;-68
2023/05/12 00:29:43;;;;;;;;;5.00;2.50;;;;;;;;4995210;28;45444;-68
2023/05/12 00:32:08;;;;;;;;;1.25;1.00;;;;;;;;4995812;28;47041;-69
2023/05/12 00:34:33;;;;;;;;;2.00;2.00;;;;;;;;4994755;28;45447;-68
2023/05/12 00:36:59;;;;;;;;;1.00;1.00;;;;;;;;4995359;28;45408;-69
2023/05/12 00:39:24;;;;;;;;;1.00;1.00;;;;;;;;4995486;28;45435;-68
2023/05/12 00:41:58;;;;;;;;;3.33;1.00;;;;;;;;4995779;28;45403;-69
2023/05/12 00:44:24;;;;;;;;;4.00;2.00;;;;;;;;4995210;28;45485;-68
2023/05/12 00:46:49;;;;;;;;;2.75;2.00;;;;;;;;4995295;28;45432;-69
2023/05/12 00:49:15;;;;;;;;;1.00;1.00;;;;;;;;4995605;28;45395;-68
2023/05/12 00:51:41;;;;;;;;;3.00;2.00;;;;;;;;4995596;28;46365;-68
2023/05/12 00:54:07;;;;;;;;;1.00;1.00;;;;;;;;4996027;28;45522;-69
2023/05/12 00:56:38;;;;;;;;;3.50;3.50;;;;;;;;4995500;28;45451;-68
2023/05/12 00:59:03;;;;;;;;;1.33;1.33;;;;;;;;4994776;28;45492;-68
2023/05/12 01:01:29;;;;;;;;;1.33;1.33;;;;;;;;4994325;28;47020;-68
2023/05/12 01:03:54;;;;;;;;;2.00;2.00;;;;;;;;4995467;28;45416;-69
2023/05/12 01:06:35;;;;;;;;;1.00;1.00;;;;;;;;4995731;28;45387;-69
2023/05/12 01:09:01;;;;;;;;;2.00;2.00;;;;;;;;4995681;28;45476;-69
2023/05/12 01:11:26;;;;;;;;;4.00;2.00;;;;;;;;4995019;28;46045;-68
2023/05/12 01:13:51;;;;;;;;;2.33;1.67;;;;;;;;4995674;28;45400;-69
2023/05/12 01:16:19;;;;;;;;;1.00;1.00;;;;;;;;4995608;28;45389;-68
2023/05/12 01:18:48;;;;;;;;;5.00;2.00;;;;;;;;4995467;28;45360;-68
2023/05/12 01:21:15;;;;;;;;;3.67;2.67;;;;;;;;4995274;28;46344;-68
2023/05/12 01:23:43;;;;;;;;;4.25;2.25;;;;;;;;4994292;28;45316;-68
2023/05/12 01:26:08;;;;;;;;;2.00;1.00;;;;;;;;4995162;28;45364;-68
2023/05/12 01:28:34;;;;;;;;;3.00;2.00;;;;;;;;4995316;28;45317;-69
2023/05/12 01:31:00;;;;;;;;;2.00;2.00;;;;;;;;4994935;28;47194;-69
2023/05/12 01:33:25;;;;;;;;;3.00;2.00;;;;;;;;4994987;28;45383;-69
2023/05/12 01:35:50;;;;;;;;;5.00;2.00;;;;;;;;4995198;28;45776;-69
2023/05/12 01:38:15;;;;;;;;;2.67;2.00;;;;;;;;4995043;28;45442;-68
2023/05/12 01:40:40;;;;;;;;;2.00;2.00;;;;;;;;4994505;28;45528;-68
2023/05/12 01:43:05;;;;;;;;;3.00;1.50;;;;;;;;4995174;28;45504;-68
2023/05/12 01:45:32;;;;;;;;;4.50;4.50;;;;;;;;4994988;28;45486;-69
2023/05/12 01:47:57;;;;;;;;;2.00;2.00;;;;;;;;4995042;28;45678;-69
2023/05/12 01:50:22;;;;;;;;;2.00;2.00;;;;;;;;4994548;28;47294;-68
2023/05/12 01:52:47;;;;;;;;;2.75;2.00;;;;;;;;4994653;28;45467;-68
2023/05/12 01:55:12;;;;;;;;;2.75;1.75;;;;;;;;4994904;28;45463;-67
2023/05/12 01:57:38;;;;;;;;;2.50;1.00;;;;;;;;4995006;28;45330;-69
2023/05/12 02:00:03;;;;;;;;;2.50;2.00;;;;;;;;4994700;28;45547;-69
2023/05/12 02:02:30;;;;;;;;;2.33;1.67;;;;;;;;4994010;28;45323;-69
2023/05/12 02:04:55;;;;;;;;;3.00;1.00;;;;;;;;4992303;28;45466;-68
2023/05/12 02:07:20;;;;;;;;;1.33;1.33;;;;;;;;4993738;28;45520;-69
2023/05/12 02:09:46;;;;;;;;;2.00;2.00;;;;;;;;4994525;28;45425;-69
2023/05/12 02:12:11;;;;;;;;;2.00;2.00;;;;;;;;4994901;28;45406;-69
2023/05/12 02:14:36;;;;;;;;;3.00;2.00;;;;;;;;4994264;28;45375;-69
2023/05/12 02:17:03;;;;;;;;;3.25;2.00;;;;;;;;4994805;28;45303;-69
2023/05/12 02:19:28;;;;;;;;;4.25;3.75;;;;;;;;4994635;28;46252;-69
2023/05/12 02:21:53;;;;;;;;;2.00;2.00;;;;;;;;4994614;28;45415;-68
2023/05/12 02:24:20;;;;;;;;;0.75;0.75;;;;;;;;4994608;28;45501;-69
2023/05/12 02:26:45;;;;;;;;;1.00;1.00;;;;;;;;4994253;28;45351;-69
2023/05/12 02:29:10;;;;;;;;;3.00;1.25;;;;;;;;4994509;28;46308;-69
2023/05/12 02:31:36;;;;;;;;;2.00;2.00;;;;;;;;4994540;28;45422;-69
2023/05/12 02:34:01;;;;;;;;;1.67;1.67;;;;;;;;4994574;28;45328;-69
2023/05/12 02:36:26;;;;;;;;;2.00;1.67;;;;;;;;4997438;28;45417;-69
2023/05/12 02:38:51;;;;;;;;;3.50;2.75;;;;;;;;4997442;28;46159;-69
2023/05/12 02:41:16;;;;;;;;;1.75;1.75;;;;;;;;4996719;28;45817;-69
2023/05/12 02:43:42;;;;;;;;;5.67;3.00;;;;;;;;4996812;28;45352;-69
2023/05/12 02:46:07;;;;;;;;;1.33;1.33;;;;;;;;4997721;28;45549;-69
2023/05/12 02:48:32;;;;;;;;;1.67;1.67;;;;;;;;4997711;28;45424;-69
2023/05/12 02:50:57;;;;;;;;;2.75;1.50;;;;;;;;4997538;28;45481;-69
2023/05/12 02:53:23;;;;;;;;;3.00;2.00;;;;;;;;4995987;28;45389;-69
2023/05/12 02:55:48;;;;;;;;;2.00;2.00;;;;;;;;4997818;28;45390;-69
2023/05/12 02:58:13;;;;;;;;;1.75;1.25;;;;;;;;4997184;28;45382;-69
2023/05/12 03:00:38;;;;;;;;;3.00;3.00;;;;;;;;4997635;28;45305;-69
2023/05/12 03:03:04;;;;;;;;;3.00;2.00;;;;;;;;4997676;28;45375;-69
2023/05/12 03:05:29;;;;;;;;;1.67;1.67;;;;;;;;4996160;28;45469;-69
2023/05/12 03:07:54;;;;;;;;;2.00;2.00;;;;;;;;4996843;28;46545;-69
2023/05/12 03:10:20;;;;;;;;;2.50;2.00;;;;;;;;4997298;28;45356;-69
2023/05/12 03:12:45;;;;;;;;;3.00;1.75;;;;;;;;4997470;28;45732;-69
2023/05/12 03:15:10;;;;;;;;;4.00;1.50;;;;;;;;4997527;28;45217;-69
2023/05/12 03:17:36;;;;;;;;;1.00;1.00;;;;;;;;4997274;28;46069;-69
2023/05/12 03:20:02;;;;;;;;;1.00;1.00;;;;;;;;4996991;28;45450;-69
2023/05/12 03:22:27;;;;;;;;;3.00;2.75;;;;;;;;4997130;28;45450;-69
2023/05/12 03:24:52;;;;;;;;;1.00;1.00;;;;;;;;4997096;28;45482;-69
2023/05/12 03:27:18;;;;;;;;;3.50;2.00;;;;;;;;4997055;28;47032;-69
2023/05/12 03:29:43;;;;;;;;;1.33;1.33;;;;;;;;4997131;28;45510;-69
2023/05/12 03:32:08;;;;;;;;;2.00;2.00;;;;;;;;4996925;28;45867;-68
2023/05/12 03:34:33;;;;;;;;;1.00;0.33;;;;;;;;4997258;28;45436;-69
2023/05/12 03:36:58;;;;;;;;;1.00;1.00;;;;;;;;4996805;28;46321;-69
2023/05/12 03:39:24;;;;;;;;;2.75;1.50;;;;;;;;4996968;28;45382;-69
2023/05/12 03:41:49;;;;;;;;;3.25;2.00;;;;;;;;4997413;28;45364;-69
2023/05/12 03:44:14;;;;;;;;;2.50;2.50;;;;;;;;4997105;28;45431;-69
2023/05/12 03:46:39;;;;;;;;;0.25;0.25;;;;;;;;4995796;28;46198;-69
2023/05/12 03:49:05;;;;;;;;;3.75;2.50;;;;;;;;4997025;28;45415;-69
2023/05/12 03:51:30;;;;;;;;;2.50;1.75;;;;;;;;4995295;28;45460;-69
2023/05/12 03:53:55;;;;;;;;;2.50;2.00;;;;;;;;4996894;28;45459;-69
2023/05/12 03:56:20;;;;;;;;;3.25;1.00;;;;;;;;4994821;28;46508;-70
2023/05/12 03:58:46;;;;;;;;;1.00;1.00;;;;;;;;4996827;28;45439;-68
2023/05/12 04:01:12;;;;;;;;;2.75;2.00;;;;;;;;4996858;28;45418;-69
2023/05/12 04:03:39;;;;;;;;;0.75;0.75;;;;;;;;4996673;28;45450;-69
2023/05/12 04:06:05;;;;;;;;;3.25;2.00;;;;;;;;4996219;28;47090;-69
2023/05/12 04:08:30;;;;;;;;;1.00;1.00;;;;;;;;4995019;28;45416;-69
2023/05/12 04:10:57;;;;;;;;;2.00;2.00;;;;;;;;4995439;28;45311;-69
2023/05/12 04:13:23;;;;;;;;;3.75;3.75;;;;;;;;4995260;28;45635;-69
2023/05/12 04:15:48;;;;;;;;;2.75;2.00;;;;;;;;4993740;28;46196;-68
2023/05/12 04:18:13;;;;;;;;;1.50;1.25;;;;;;;;4995399;28;45374;-69
2023/05/12 04:20:39;;;;;;;;;2.00;2.00;;;;;;;;4996934;28;45438;-69
2023/05/12 04:23:04;;;;;;;;;2.25;2.25;;;;;;;;4996309;28;45337;-69
2023/05/12 04:25:29;;;;;;;;;5.00;2.00;;;;;;;;4995974;28;45478;-69
2023/05/12 04:27:54;;;;;;;;;2.75;2.75;;;;;;;;4996371;28;45431;-69
2023/05/12 04:30:20;;;;;;;;;2.00;2.00;;;;;;;;4995998;28;45390;-69
2023/05/12 04:32:47;;;;;;;;;2.75;2.75;;;;;;;;4995626;28;45360;-70
2023/05/12 04:35:12;;;;;;;;;2.25;2.25;;;;;;;;4996102;28;45633;-69
2023/05/12 04:37:37;;;;;;;;;1.75;1.75;;;;;;;;4995969;28;45403;-69
2023/05/12 04:40:03;;;;;;;;;2.25;2.25;;;;;;;;4995771;28;45399;-69
2023/05/12 04:42:28;;;;;;;;;1.75;1.75;;;;;;;;4995951;28;45337;-69
2023/05/12 04:44:53;;;;;;;;;2.00;2.00;;;;;;;;4995634;28;46458;-69
2023/05/12 04:47:19;;;;;;;;;3.00;3.00;;;;;;;;4995817;28;45300;-69
2023/05/12 04:49:44;;;;;;;;;1.25;1.25;;;;;;;;4995978;28;45295;-69
2023/05/12 04:52:09;;;;;;;;;4.00;4.00;;;;;;;;4996092;28;45363;-69
2023/05/12 04:54:34;;;;;;;;;2.75;2.75;;;;;;;;4994575;28;45558;-69
2023/05/12 04:56:59;;;;;;;;;2.00;2.00;;;;;;;;4995496;28;45529;-68
2023/05/12 04:59:25;;;;;;;;;3.00;2.75;;;;;;;;4994854;28;45395;-69
2023/05/12 05:01:50;;;;;;;;;2.25;2.25;;;;;;;;4995596;28;45487;-69
2023/05/12 05:04:15;;;;;;;;;2.00;2.00;;;;;;;;4995432;28;45483;-70
2023/05/12 05:06:41;;;;;;;;;4.00;3.00;;;;;;;;4995453;28;45341;-68
2023/05/12 05:09:06;;;;;;;;;2.75;2.75;;;;;;;;4994614;28;45250;-68
2023/05/12 05:11:31;;;;;;;;;1.50;1.50;;;;;;;;4995623;28;45500;-68
2023/05/12 05:13:56;;;;;;;;;3.25;1.75;;;;;;;;4995330;28;46192;-68
2023/05/12 05:16:22;;;;;;;;;3.00;3.00;;;;;;;;4994387;28;45339;-68
2023/05/12 05:18:47;;;;;;;;;2.00;2.00;;;;;;;;4995340;28;45414;-68
2023/05/12 05:21:13;;;;;;;;;4.00;2.00;;;;;;;;4995428;28;45450;-69
2023/05/12 05:23:38;;;;;;;;;2.25;2.25;;;;;;;;4994716;28;47178;-69
2023/05/12 05:26:03;;;;;;;;;1.25;1.25;;;;;;;;4994767;28;45398;-68
2023/05/12 05:28:29;;;;;;;;;4.50;2.75;;;;;;;;4988662;28;45320;-68
2023/05/12 05:30:55;;;;;;;;;2.00;2.00;;;;;;;;4994587;28;45474;-68
2023/05/12 05:33:20;;;;;;;;;3.00;2.00;;;;;;;;4993907;28;45407;-69
2023/05/12 05:35:45;;;;;;;;;2.25;2.25;;;;;;;;4994331;28;45500;-69
2023/05/12 05:38:11;;;;;;;;;4.00;2.75;;;;;;;;4994563;28;46025;-69
2023/05/12 05:40:36;;;;;;;;;3.50;2.00;;;;;;;;4994560;28;45532;-69
2023/05/12 05:43:01;;;;;;;;;2.75;2.75;;;;;;;;4995021;28;47272;-69
2023/05/12 05:45:26;;;;;;;;;2.00;2.00;;;;;;;;4993659;28;45592;-70
2023/05/12 05:47:52;;;;;;;;;2.25;2.00;;;;;;;;4995561;28;45405;-69
2023/05/12 05:50:17;;;;;;;;;3.75;2.50;;;;;;;;4995075;28;45379;-70
2023/05/12 05:52:42;;;;;;;;;1.00;1.00;;;;;;;;4994552;28;45884;-70
2023/05/12 05:55:07;;;;;;;;;3.50;1.50;;;;;;;;4995003;28;45371;-70
2023/05/12 05:57:33;;;;;;;;;2.00;2.00;;;;;;;;4994863;28;45393;-70
2023/05/12 05:59:58;;;;;;;;;2.75;2.75;;;;;;;;4995070;28;45399;-70
2023/05/12 06:02:23;;;;;;;;;3.00;2.00;;;;;;;;4994835;28;46981;-70
2023/05/12 06:04:48;;;;;;;;;3.75;3.00;;;;;;;;4994679;28;46106;-72
2023/05/12 06:07:14;;;;;;;;;2.75;2.25;;;;;;;;4995156;28;45443;-69
2023/05/12 06:09:39;;;;;;;;;2.75;1.75;;;;;;;;4994948;28;45422;-67
2023/05/12 06:12:04;;;;;;;;;4.75;2.25;;;;;;;;4998535;28;45438;-67
2023/05/12 06:14:29;;;;;;;;;3.25;3.25;;;;;;;;4998483;28;45277;-68
2023/05/12 06:16:54;;;;;;;;;2.25;2.25;;;;;;;;4998074;28;45524;-67
2023/05/12 06:19:20;;;;;;;;;3.25;2.25;;;;;;;;4998738;28;45367;-67
2023/05/12 06:21:45;;;;;;;;;1.25;1.25;;;;;;;;4997949;28;45794;-67
2023/05/12 06:24:10;;;;;;;;;2.00;2.00;;;;;;;;4997885;28;45360;-67
2023/05/12 06:26:36;;;;;;;;;2.75;2.75;;;;;;;;4997862;28;45507;-67
2023/05/12 06:29:01;;;;;;;;;3.25;2.25;;;;;;;;4997426;28;45464;-67
2023/05/12 06:31:26;;;;;;;;;2.00;2.00;;;;;;;;4997137;28;45399;-68
2023/05/12 06:33:52;;;;;;;;;3.50;2.25;;;;;;;;4996345;28;45498;-68
2023/05/12 06:36:17;;;;;;;;;3.00;1.00;;;;;;;;4977294;28;45498;-68
2023/05/12 06:38:42;;;;;;;;;2.00;2.00;;;;;;;;4981790;28;45478;-68
2023/05/12 06:41:07;;;;;;;;;2.50;1.25;;;;;;;;4978632;28;46986;-68
2023/05/12 06:43:32;;;;;;;;;2.00;2.00;;;;;;;;4977125;28;45408;-68
2023/05/12 06:45:57;;;;;;;;;2.25;1.50;;;;;;;;4977239;28;45250;-68
2023/05/12 06:48:23;;;;;;;;;1.50;1.50;;;;;;;;4976799;28;45356;-68
2023/05/12 06:50:48;;;;;;;;;3.50;2.50;;;;;;;;4982276;28;47240;-68
2023/05/12 06:53:13;;;;;;;;;2.75;2.75;;;;;;;;4997774;28;45304;-68
2023/05/12 06:55:39;;;;;;;;;2.75;2.75;;;;;;;;4997783;28;45383;-68
2023/05/12 06:58:04;;;;;;;;;2.00;1.75;;;;;;;;4996247;28;45434;-68
2023/05/12 07:00:30;;;;;;;;;1.00;1.00;;;;;;;;4996597;28;45498;-68
2023/05/12 07:02:55;;;;;;;;;2.00;2.00;;;;;;;;4995874;28;45444;-68
2023/05/12 07:05:20;;;;;;;;;3.00;2.00;;;;;;;;4997275;28;45375;-68
2023/05/12 07:07:46;;;;;;;;;2.00;2.00;;;;;;;;4997499;28;45494;-68
2023/05/12 07:10:11;;;;;;;;;2.50;2.00;;;;;;;;4997300;28;45465;-68
2023/05/12 07:12:37;;;;;;;;;1.00;1.00;;;;;;;;4997157;28;45383;-68
2023/05/12 07:15:03;;;;;;;;;2.25;2.25;;;;;;;;4997248;28;45414;-68
2023/05/12 07:17:28;;;;;;;;;2.25;2.25;;;;;;;;4997228;28;45537;-68
2023/05/12 07:19:53;;;;;;;;;2.00;2.00;;;;;;;;4996008;28;46496;-68
2023/05/12 07:22:20;;;;;;;;;3.25;2.25;;;;;;;;4996106;28;45363;-68
2023/05/12 07:24:45;;;;;;;;;1.50;1.50;;;;;;;;4997356;28;45438;-68
2023/05/12 07:27:10;;;;;;;;;4.00;2.75;;;;;;;;4997067;28;45510;-69
2023/05/12 07:29:35;;;;;;;;;4.75;2.75;;;;;;;;4995674;28;47133;-69
2023/05/12 07:32:00;;;;;;;;;3.75;3.00;;;;;;;;4997566;28;45351;-69
2023/05/12 07:34:26;;;;;;;;;1.50;1.50;;;;;;;;4997188;28;45414;-69
2023/05/12 07:36:51;;;;;;;;;0.00;0.00;;;;;;;;4997415;28;45573;-69
2023/05/12 07:39:22;;;;;;;;;6.75;4.75;;;;;;;;4996644;28;47224;-68
2023/05/12 07:41:47;;;;;;;;;5.00;3.00;;;;;;;;4996597;28;45521;-69
2023/05/12 07:44:12;;;;;;;;;2.00;2.00;;;;;;;;4996865;28;45530;-68
2023/05/12 07:46:37;;;;;;;;;3.25;3.25;;;;;;;;4994853;28;45509;-69
2023/05/12 07:49:03;;;;;;;;;3.00;3.00;;;;;;;;4996055;28;45482;-68
2023/05/12 07:51:28;;;;;;;;;3.75;3.00;;;;;;;;4996535;28;45545;-69
2023/05/12 07:53:54;;;;;;;;;4.75;4.00;;;;;;;;4996887;28;45450;-68
2023/05/12 07:56:20;;;;;;;;;5.50;4.00;;;;;;;;4995853;28;46028;-68
2023/05/12 07:58:45;;;;;;;;;2.50;2.50;;;;;;;;4996096;28;45592;-68
2023/05/12 08:01:11;;;;;;;;;4.25;2.00;;;;;;;;4996122;28;45384;-68
2023/05/12 08:03:36;;;;;;;;;3.00;3.00;;;;;;;;4996016;28;45320;-68
2023/05/12 08:06:03;;;;;;;;;3.50;2.75;;;;;;;;4995814;28;45641;-68
2023/05/12 08:08:28;;;;;;;;;4.75;3.00;;;;;;;;4995994;28;47177;-68
2023/05/12 08:10:53;;;;;;;;;3.00;3.00;;;;;;;;4995568;28;45482;-68
2023/05/12 08:13:19;;;;;;;;;4.50;4.50;;;;;;;;4996060;28;45764;-69
2023/05/12 08:15:46;;;;;;;;;2.50;2.50;;;;;;;;4996104;28;45519;-68
2023/05/12 08:18:11;;;;;;;;;2.75;2.75;;;;;;;;4995100;28;46342;-68
2023/05/12 08:20:36;;;;;;;;;4.00;4.00;;;;;;;;4996406;28;45403;-68
2023/05/12 08:23:02;;;;;;;;;2.50;2.50;;;;;;;;4996281;28;45337;-69
2023/05/12 08:25:29;;;;;;;;;6.25;3.50;;;;;;;;4996056;28;45424;-69
2023/05/12 08:27:54;;;;;;;;;2.50;2.50;;;;;;;;4996158;28;47056;-68
2023/05/12 08:30:19;;;;;;;;;3.25;3.00;;;;;;;;4995855;28;45264;-68
2023/05/12 08:32:45;;;;;;;;;3.00;2.67;;;;;;;;4996122;28;45437;-69
2023/05/12 08:35:11;;;;;;;;;8.00;5.00;;;;;;;;4996135;28;45436;-68
2023/05/12 08:37:36;;;;;;;;;3.00;3.00;;;;;;;;4994714;28;46262;-68
2023/05/12 08:40:02;;;;;;;;;3.25;2.25;;;;;;;;4995980;28;45253;-68
2023/05/12 08:42:39;;;;;;;;;3.00;3.00;;;;;;;;4994962;28;45438;-68
2023/05/12 08:45:05;;;;;;;;;5.00;4.00;;;;;;;;4996069;28;45431;-68
2023/05/12 08:47:31;;;;;;;;;6.75;5.00;;;;;;;;4995748;28;45296;-68
2023/05/12 08:50:02;;;;;;;;;4.50;4.50;;;;;;;;4995610;28;45435;-69
2023/05/12 08:52:28;;;;;;;;;4.75;4.00;;;;;;;;4995646;28;45375;-69
2023/05/12 08:54:54;;;;;;;;;8.75;6.75;;;;;;;;4995753;28;45233;-69
2023/05/12 08:57:20;;;;;;;;;7.25;6.25;;;;;;;;4995489;28;45436;-69
2023/05/12 08:59:45;;;;;;;;;7.75;6.00;;;;;;;;4995781;28;45369;-68
2023/05/12 09:02:12;;;;;;;;;8.25;7.50;;;;;;;;4995700;28;45831;-68
2023/05/12 09:04:38;;;;;;;;;9.75;8.50;;;;;;;;4995956;28;45459;-68
2023/05/12 09:07:05;;;;;;;;;8.75;7.75;;;;;;;;4994095;28;46013;-67
2023/05/12 09:09:31;;;;;;;;;15.25;14.00;;;;;;;;4995100;28;45408;-67
2023/05/12 09:11:58;;;;;;;;;12.00;12.00;;;;;;;;4995710;28;45373;-68
2023/05/12 09:14:24;;;;;;;;;10.50;9.00;;;;;;;;4994358;28;45434;-69
2023/05/12 09:16:52;;;;;;;;;15.00;12.25;;;;;;;;4995245;28;47186;-67
2023/05/12 09:19:19;;;;;;;;;13.00;11.75;;;;;;;;4995444;28;45415;-68
2023/05/12 09:21:45;;;;;;;;;10.75;9.00;;;;;;;;4995467;28;45329;-67
2023/05/12 09:24:10;;;;;;;;;25.75;20.00;;;;;;;;4995053;28;45520;-69
2023/05/12 09:26:46;;;;;;;;;17.00;17.00;;;;;;;;4995386;28;46190;-68
2023/05/12 09:29:12;;;;;;;;;25.00;21.00;;;;;;;;4995217;28;45454;-67
2023/05/12 09:31:37;;;;;;;;;21.75;20.25;;;;;;;;4995424;28;46168;-69
2023/05/12 09:34:06;;;;;;;;;21.00;19.50;;;;;;;;4994143;28;45544;-68
2023/05/12 09:36:32;;;;;;;;;13.50;11.25;;;;;;;;4994680;28;47192;-68
2023/05/12 09:38:58;;;;;;;;;12.00;11.75;;;;;;;;4993129;28;45367;-68
2023/05/12 09:41:24;;;;;;;;;10.75;10.00;;;;;;;;4994550;28;45463;-68
2023/05/12 09:43:51;;;;;;;;;13.25;10.75;;;;;;;;4995377;28;45746;-68
2023/05/12 09:46:16;;;;;;;;;14.50;13.50;;;;;;;;4993628;28;46133;-68
2023/05/12 09:48:41;;;;;;;;;11.75;11.00;;;;;;;;4994610;28;45267;-68
2023/05/12 09:51:08;;;;;;;;;39.00;33.00;;;;;;;;4994782;28;45341;-68
2023/05/12 09:53:39;;;;;;;;;10.25;10.25;;;;;;;;4994223;28;45527;-68
2023/05/12 09:56:05;;;;;;;;;10.75;9.50;;;;;;;;4994116;28;46360;-68
2023/05/12 09:58:30;;;;;;;;;10.25;9.00;;;;;;;;4994121;28;45407;-68
2023/05/12 10:00:56;;;;;;;;;6.75;5.00;;;;;;;;4994451;28;45380;-68
2023/05/12 10:03:23;;;;;;;;;6.75;6.75;;;;;;;;4994617;28;45400;-68
2023/05/12 10:05:53;;;;;;;;;7.50;5.00;;;;;;;;4993634;28;46026;-68
2023/05/12 10:08:32;;;;;;;;;10.25;8.25;;;;;;;;4994125;28;45541;-68
2023/05/12 10:10:58;;;;;;;;;10.75;9.25;;;;;;;;4992597;28;45375;-68
2023/05/12 10:13:25;;;;;;;;;8.75;7.00;;;;;;;;4994119;28;45550;-68
2023/05/12 10:15:51;;;;;;;;;13.50;12.25;;;;;;;;4993951;28;45363;-68
2023/05/12 10:18:16;;;;;;;;;4.50;4.50;;;;;;;;4994333;28;45476;-68
2023/05/12 10:20:43;;;;;;;;;1.75;1.75;;;;;;;;4994733;28;45576;-68
2023/05/12 10:23:11;;;;;;;;;4.75;4.75;;;;;;;;4994220;28;45432;-68
2023/05/12 10:25:36;;;;;;;;;5.75;5.75;;;;;;;;4993917;28;45686;-68
2023/05/12 10:28:02;;;;;;;;;4.50;4.50;;;;;;;;4993637;28;45472;-68
2023/05/12 10:30:28;;;;;;;;;11.00;10.75;;;;;;;;4993382;28;45280;-68
2023/05/12 10:32:55;;;;;;;;;4.25;4.25;;;;;;;;4994621;28;45407;-68
2023/05/12 10:35:30;;;;;;;;;2.50;2.50;;;;;;;;4993924;28;45568;-68
2023/05/12 10:37:59;;;;;;;;;4.00;4.00;;;;;;;;4994473;28;45420;-68
2023/05/12 10:40:25;;;;;;;;;4.00;4.00;;;;;;;;4994801;28;45383;-69
2023/05/12 10:42:51;;;;;;;;;3.00;3.00;;;;;;;;4993592;28;45616;-69
2023/05/12 10:45:17;;;;;;;;;2.75;2.75;;;;;;;;4994434;28;45355;-69
2023/05/12 10:47:43;;;;;;;;;4.75;2.50;;;;;;;;4993805;28;45435;-69
2023/05/12 10:50:12;;;;;;;;;1.50;1.50;;;;;;;;4994389;28;45345;-68
2023/05/12 10:52:37;;;;;;;;;1.67;1.67;;;;;;;;4994826;28;45399;-68
2023/05/12 10:55:03;;;;;;;;;2.00;2.00;;;;;;;;4992625;28;48909;-69
2023/05/12 10:57:29;;;;;;;;;3.75;2.25;;;;;;;;4995665;28;45541;-68
2023/05/12 10:59:58;;;;;;;;;4.75;3.00;;;;;;;;4998147;28;45383;-69
2023/05/12 11:02:27;;;;;;;;;3.50;3.00;;;;;;;;4997666;28;45494;-69
2023/05/12 11:04:54;;;;;;;;;8.00;4.00;;;;;;;;4997427;28;45760;-67
2023/05/12 11:07:20;;;;;;;;;3.67;2.67;;;;;;;;4997403;28;45424;-69
2023/05/12 11:09:46;;;;;;;;;2.33;2.33;;;;;;;;4997735;28;45323;-69
2023/05/12 11:12:12;;;;;;;;;2.00;2.00;;;;;;;;4997625;28;45574;-68
2023/05/12 11:14:39;;;;;;;;;1.75;1.75;;;;;;;;4997329;28;45423;-69
2023/05/12 11:17:04;;;;;;;;;4.00;3.75;;;;;;;;4997300;28;45401;-68
2023/05/12 11:19:30;;;;;;;;;2.00;2.00;;;;;;;;4996974;28;45395;-68
2023/05/12 11:21:56;;;;;;;;;2.67;1.33;;;;;;;;4997067;28;45467;-68
2023/05/12 11:24:22;;;;;;;;;4.00;3.00;;;;;;;;4996857;28;45456;-68
2023/05/12 11:26:50;;;;;;;;;2.75;2.75;;;;;;;;4996699;28;45655;-68
2023/05/12 11:29:20;;;;;;;;;6.25;5.00;;;;;;;;4997115;28;45367;-68
2023/05/12 11:31:51;;;;;;;;;2.00;2.00;;;;;;;;4996706;28;45540;-68
2023/05/12 11:34:21;;;;;;;;;3.50;2.50;;;;;;;;4996821;28;45394;-69
2023/05/12 11:36:47;;;;;;;;;3.00;2.00;;;;;;;;4996755;28;45858;-69
2023/05/12 11:39:19;;;;;;;;;3.00;3.00;;;;;;;;4996219;28;45392;-68
2023/05/12 11:41:46;;;;;;;;;0.50;0.50;;;;;;;;4996762;28;45582;-70
2023/05/12 11:44:22;;;;;;;;;2.50;1.25;;;;;;;;4996218;28;47123;-68
2023/05/12 11:46:53;;;;;;;;;2.25;2.25;;;;;;;;4996768;28;45426;-68
2023/05/12 11:49:18;;;;;;;;;1.67;1.67;;;;;;;;4996850;28;45186;-68
2023/05/12 11:51:43;;;;;;;;;3.75;3.75;;;;;;;;4996887;28;45507;-68
2023/05/12 11:54:09;;;;;;;;;4.67;2.00;;;;;;;;4996402;28;46149;-68
2023/05/12 11:56:35;;;;;;;;;4.50;4.50;;;;;;;;4996120;28;45352;-68
2023/05/12 11:59:00;;;;;;;;;2.67;2.67;;;;;;;;4992684;28;45671;-68
2023/05/12 12:01:25;;;;;;;;;4.00;3.33;;;;;;;;4976387;28;45843;-68
2023/05/12 12:03:52;;;;;;;;;3.25;3.25;;;;;;;;4976379;28;45718;-68
2023/05/12 12:06:18;;;;;;;;;5.75;5.25;;;;;;;;4978040;28;45513;-68
2023/05/12 12:08:49;;;;;;;;;2.67;2.67;;;;;;;;4991127;28;45370;-68
2023/05/12 12:11:15;;;;;;;;;0.67;0.67;;;;;;;;4996310;28;45454;-68
2023/05/12 12:13:46;;;;;;;;;4.75;4.75;;;;;;;;4982243;28;45441;-69
2023/05/12 12:16:11;;;;;;;;;3.50;3.50;;;;;;;;4992106;28;45421;-68
2023/05/12 12:18:36;;;;;;;;;3.00;3.00;;;;;;;;4981099;28;45433;-68
2023/05/12 12:21:01;;;;;;;;;1.50;1.50;;;;;;;;4986427;28;45535;-69
2023/05/12 12:23:27;;;;;;;;;4.00;3.00;;;;;;;;4990770;28;47093;-69
2023/05/12 12:25:52;;;;;;;;;3.25;3.25;;;;;;;;4995882;28;45333;-68
2023/05/12 12:28:17;;;;;;;;;5.00;5.00;;;;;;;;4979565;28;45552;-68
2023/05/12 12:30:42;;;;;;;;;4.25;3.75;;;;;;;;4995742;28;45454;-67
2023/05/12 12:33:08;;;;;;;;;2.00;2.00;;;;;;;;4992182;28;46392;-67
2023/05/12 12:35:33;;;;;;;;;5.50;4.25;;;;;;;;4995581;28;45356;-67
2023/05/12 12:37:59;;;;;;;;;3.00;3.00;;;;;;;;4995392;28;45438;-68
2023/05/12 12:40:24;;;;;;;;;4.00;3.75;;;;;;;;4992468;28;45533;-67
2023/05/12 12:42:49;;;;;;;;;4.25;4.25;;;;;;;;4995433;28;47088;-67
2023/05/12 12:45:15;;;;;;;;;6.50;5.00;;;;;;;;4985459;28;45552;-68
2023/05/12 12:47:40;;;;;;;;;4.00;3.75;;;;;;;;4989419;28;45491;-68
2023/05/12 12:50:06;;;;;;;;;4.75;4.75;;;;;;;;4979111;28;45519;-67
2023/05/12 12:52:31;;;;;;;;;4.00;4.00;;;;;;;;4995301;28;45496;-67
2023/05/12 12:54:57;;;;;;;;;5.00;5.00;;;;;;;;4986533;28;45344;-67
2023/05/12 12:57:22;;;;;;;;;4.00;4.00;;;;;;;;4985342;28;45439;-67
2023/05/12 12:59:48;;;;;;;;;8.00;6.00;;;;;;;;4979804;28;45463;-67
2023/05/12 13:02:13;;;;;;;;;3.75;3.75;;;;;;;;4991115;28;46379;-67
2023/05/12 13:04:38;;;;;;;;;8.25;6.75;;;;;;;;4994840;28;45367;-67
2023/05/12 13:07:04;;;;;;;;;5.25;5.25;;;;;;;;4994622;28;45332;-68
2023/05/12 13:09:30;;;;;;;;;8.00;6.00;;;;;;;;4982534;28;45622;-67
2023/05/12 13:11:55;;;;;;;;;3.50;3.50;;;;;;;;4991076;28;45503;-67
2023/05/12 13:14:20;;;;;;;;;4.00;3.33;;;;;;;;4978548;28;45563;-67
2023/05/12 13:16:45;;;;;;;;;3.00;3.00;;;;;;;;4994263;28;45382;-69
2023/05/12 13:19:11;;;;;;;;;5.00;3.00;;;;;;;;4994638;28;45489;-67
2023/05/12 13:21:36;;;;;;;;;3.67;2.67;;;;;;;;4994847;28;45359;-67
2023/05/12 13:24:01;;;;;;;;;3.00;3.00;;;;;;;;4995688;28;45248;-66
2023/05/12 13:26:27;;;;;;;;;1.33;1.33;;;;;;;;4995844;28;45236;-67
2023/05/12 13:28:52;;;;;;;;;1.00;1.00;;;;;;;;4995560;28;45213;-67
2023/05/12 13:31:17;;;;;;;;;1.00;1.00;;;;;;;;4994882;28;45311;-67
2023/05/12 13:33:42;;;;;;;;;2.67;1.00;;;;;;;;4995342;28;45265;-66
2023/05/12 13:36:08;;;;;;;;;1.00;1.00;;;;;;;;4994245;28;45313;-67
2023/05/12 13:38:33;;;;;;;;;1.00;1.00;;;;;;;;4995358;28;45458;-66
2023/05/12 13:40:58;;;;;;;;;2.00;2.00;;;;;;;;4995224;28;45322;-67
2023/05/12 13:43:23;;;;;;;;;2.00;2.00;;;;;;;;4995229;28;45405;-66
2023/05/12 13:45:49;;;;;;;;;1.67;1.33;;;;;;;;4995362;28;45230;-67
2023/05/12 13:48:14;;;;;;;;;3.67;1.67;;;;;;;;4993675;28;45503;-68
2023/05/12 13:50:39;;;;;;;;;1.67;1.67;;;;;;;;4995148;28;47380;-67
2023/05/12 13:53:05;;;;;;;;;2.25;1.00;;;;;;;;4995093;28;45288;-68
2023/05/12 13:55:32;;;;;;;;;2.00;2.00;;;;;;;;4993900;28;45426;-68
2023/05/12 13:57:58;;;;;;;;;2.00;2.00;;;;;;;;4994922;28;45568;-69
2023/05/12 14:00:25;;;;;;;;;4.00;3.00;;;;;;;;4994470;28;45414;-68
2023/05/12 14:02:51;;;;;;;;;2.75;0.75;;;;;;;;4993735;28;45593;-68
2023/05/12 14:05:16;;;;;;;;;0.67;0.67;;;;;;;;4994857;28;45497;-68
2023/05/12 14:07:41;;;;;;;;;1.00;1.00;;;;;;;;4993769;28;45415;-68
2023/05/12 14:10:06;;;;;;;;;4.00;2.00;;;;;;;;4994644;28;46157;-68
2023/05/12 14:12:32;;;;;;;;;1.33;1.33;;;;;;;;4993453;28;45419;-67
2023/05/12 14:14:58;;;;;;;;;3.33;2.33;;;;;;;;4995148;28;45818;-68
2023/05/12 14:17:24;;;;;;;;;0.00;0.00;;;;;;;;4995192;28;45415;-68
2023/05/12 14:19:49;;;;;;;;;1.33;0.67;;;;;;;;4994878;28;45486;-68
2023/05/12 14:22:14;;;;;;;;;2.00;2.00;;;;;;;;4993276;28;45810;-67
2023/05/12 14:24:40;;;;;;;;;0.00;0.00;;;;;;;;4994680;28;45290;-67
2023/05/12 14:27:05;;;;;;;;;1.00;1.00;;;;;;;;4977159;28;45584;-68
2023/05/12 14:29:31;;;;;;;;;2.67;1.00;;;;;;;;4994225;28;45674;-67
2023/05/12 14:31:56;;;;;;;;;1.00;1.00;;;;;;;;4996834;28;45352;-67